sensor_id;sensor_type;location;lat;lon;timestamp;P1;durP1;ratioP1;P2;durP2;ratioP2
36091;SDS011;22147;52.388;13.390;2023-11-19T00:00:33;9.31;;;9.31;;
36091;SDS011;22147;52.388;13.390;2023-11-19T00:03:04;9.19;;;9.19;;
36091;SDS011;22147;52.388;13.390;2023-11-19T00:05:35;8.83;;;8.83;;
36091;SDS011;22147;52.388;13.390;2023-11-19T00:08:05;8.94;;;8.94;;
36091;SDS011;22147;52.388;13.390;2023-11-19T00:10:35;8.99;;;8.99;;
36091;SDS011;22147;52.388;13.390;2023-11-19T00:13:06;8.75;;;8.75;;
36091;SDS011;22147;52.388;13.390;2023-11-19T00:15:36;8.73;;;8.73;;
36091;SDS011;22147;52.388;13.390;2023-11-19T00:18:06;9.61;;;9.61;;
36091;SDS011;22147;52.388;13.390;2023-11-19T00:20:36;9.20;;;9.20;;
36091;SDS011;22147;52.388;13.390;2023-11-19T00:23:07;8.76;;;8.76;;
36091;SDS011;22147;52.388;13.390;2023-11-19T00:25:37;8.06;;;8.06;;
36091;SDS011;22147;52.388;13.390;2023-11-19T00:28:08;8.78;;;8.77;;
36091;SDS011;22147;52.388;13.390;2023-11-19T00:30:38;8.77;;;8.75;;
36091;SDS011;22147;52.388;13.390;2023-11-19T00:33:10;8.65;;;8.62;;
36091;SDS011;22147;52.388;13.390;2023-11-19T00:35:40;8.46;;;8.44;;
36091;SDS011;22147;52.388;13.390;2023-11-19T00:38:10;8.64;;;8.62;;
36091;SDS011;22147;52.388;13.390;2023-11-19T00:40:40;8.47;;;8.47;;
36091;SDS011;22147;52.388;13.390;2023-11-19T00:43:10;8.33;;;8.33;;
36091;SDS011;22147;52.388;13.390;2023-11-19T00:45:40;8.05;;;8.05;;
36091;SDS011;22147;52.388;13.390;2023-11-19T00:48:10;7.96;;;7.96;;
36091;SDS011;22147;52.388;13.390;2023-11-19T00:50:40;8.35;;;8.35;;
36091;SDS011;22147;52.388;13.390;2023-11-19T00:53:13;8.29;;;8.29;;
36091;SDS011;22147;52.388;13.390;2023-11-19T00:55:43;7.89;;;7.89;;
36091;SDS011;22147;52.388;13.390;2023-11-19T00:58:16;7.84;;;7.84;;
36091;SDS011;22147;52.388;13.390;2023-11-19T01:00:47;8.07;;;8.07;;
36091;SDS011;22147;52.388;13.390;2023-11-19T01:03:17;7.94;;;7.94;;
36091;SDS011;22147;52.388;13.390;2023-11-19T01:05:48;8.20;;;8.20;;
36091;SDS011;22147;52.388;13.390;2023-11-19T01:08:16;8.21;;;8.21;;
36091;SDS011;22147;52.388;13.390;2023-11-19T01:10:44;8.01;;;8.01;;
36091;SDS011;22147;52.388;13.390;2023-11-19T01:13:13;8.07;;;8.07;;
36091;SDS011;22147;52.388;13.390;2023-11-19T01:15:41;7.65;;;7.65;;
36091;SDS011;22147;52.388;13.390;2023-11-19T01:18:10;8.20;;;8.20;;
36091;SDS011;22147;52.388;13.390;2023-11-19T01:20:38;7.85;;;7.84;;
36091;SDS011;22147;52.388;13.390;2023-11-19T01:23:07;7.73;;;7.73;;
36091;SDS011;22147;52.388;13.390;2023-11-19T01:25:35;7.83;;;7.83;;
36091;SDS011;22147;52.388;13.390;2023-11-19T01:28:03;7.78;;;7.78;;
36091;SDS011;22147;52.388;13.390;2023-11-19T01:30:32;7.78;;;7.78;;
36091;SDS011;22147;52.388;13.390;2023-11-19T01:33:00;7.89;;;7.89;;
36091;SDS011;22147;52.388;13.390;2023-11-19T01:35:29;7.48;;;7.47;;
36091;SDS011;22147;52.388;13.390;2023-11-19T01:37:57;7.49;;;7.49;;
36091;SDS011;22147;52.388;13.390;2023-11-19T01:40:25;7.41;;;7.40;;
36091;SDS011;22147;52.388;13.390;2023-11-19T01:42:54;8.14;;;8.09;;
36091;SDS011;22147;52.388;13.390;2023-11-19T01:45:31;7.42;;;7.41;;
36091;SDS011;22147;52.388;13.390;2023-11-19T01:48:03;7.52;;;7.49;;
36091;SDS011;22147;52.388;13.390;2023-11-19T01:50:34;7.77;;;7.75;;
36091;SDS011;22147;52.388;13.390;2023-11-19T01:53:05;7.57;;;7.57;;
36091;SDS011;22147;52.388;13.390;2023-11-19T01:55:35;7.64;;;7.64;;
36091;SDS011;22147;52.388;13.390;2023-11-19T01:58:05;7.58;;;7.58;;
36091;SDS011;22147;52.388;13.390;2023-11-19T02:00:37;6.90;;;6.90;;
36091;SDS011;22147;52.388;13.390;2023-11-19T02:03:08;7.22;;;7.21;;
36091;SDS011;22147;52.388;13.390;2023-11-19T02:05:39;7.11;;;7.10;;
36091;SDS011;22147;52.388;13.390;2023-11-19T02:08:10;7.29;;;7.28;;
36091;SDS011;22147;52.388;13.390;2023-11-19T02:10:43;7.12;;;7.12;;
36091;SDS011;22147;52.388;13.390;2023-11-19T02:13:12;7.07;;;7.07;;
36091;SDS011;22147;52.388;13.390;2023-11-19T02:15:43;7.28;;;7.28;;
36091;SDS011;22147;52.388;13.390;2023-11-19T02:18:22;6.72;;;6.72;;
36091;SDS011;22147;52.388;13.390;2023-11-19T02:20:57;7.16;;;7.16;;
36091;SDS011;22147;52.388;13.390;2023-11-19T02:23:29;7.43;;;7.43;;
36091;SDS011;22147;52.388;13.390;2023-11-19T02:26:14;7.26;;;7.26;;
36091;SDS011;22147;52.388;13.390;2023-11-19T02:28:56;6.90;;;6.90;;
36091;SDS011;22147;52.388;13.390;2023-11-19T02:31:25;6.88;;;6.87;;
36091;SDS011;22147;52.388;13.390;2023-11-19T02:33:55;7.00;;;6.97;;
36091;SDS011;22147;52.388;13.390;2023-11-19T02:36:25;7.08;;;7.08;;
36091;SDS011;22147;52.388;13.390;2023-11-19T02:38:55;6.79;;;6.79;;
36091;SDS011;22147;52.388;13.390;2023-11-19T02:41:25;6.91;;;6.91;;
36091;SDS011;22147;52.388;13.390;2023-11-19T02:43:55;6.64;;;6.64;;
36091;SDS011;22147;52.388;13.390;2023-11-19T02:46:23;6.67;;;6.67;;
36091;SDS011;22147;52.388;13.390;2023-11-19T02:48:53;6.43;;;6.43;;
36091;SDS011;22147;52.388;13.390;2023-11-19T02:51:23;6.34;;;6.34;;
36091;SDS011;22147;52.388;13.390;2023-11-19T02:53:53;6.59;;;6.59;;
36091;SDS011;22147;52.388;13.390;2023-11-19T02:56:23;6.24;;;6.24;;
36091;SDS011;22147;52.388;13.390;2023-11-19T02:58:56;6.37;;;6.37;;
36091;SDS011;22147;52.388;13.390;2023-11-19T03:01:26;5.86;;;5.86;;
36091;SDS011;22147;52.388;13.390;2023-11-19T03:04:00;6.01;;;6.01;;
36091;SDS011;22147;52.388;13.390;2023-11-19T03:06:32;5.87;;;5.87;;
36091;SDS011;22147;52.388;13.390;2023-11-19T03:09:02;5.92;;;5.92;;
36091;SDS011;22147;52.388;13.390;2023-11-19T03:11:37;5.70;;;5.70;;
36091;SDS011;22147;52.388;13.390;2023-11-19T03:14:08;5.77;;;5.77;;
36091;SDS011;22147;52.388;13.390;2023-11-19T03:16:37;5.78;;;5.78;;
36091;SDS011;22147;52.388;13.390;2023-11-19T03:19:07;5.27;;;5.27;;
36091;SDS011;22147;52.388;13.390;2023-11-19T03:21:37;5.19;;;5.19;;
36091;SDS011;22147;52.388;13.390;2023-11-19T03:24:07;5.26;;;5.26;;
36091;SDS011;22147;52.388;13.390;2023-11-19T03:26:37;5.32;;;5.32;;
36091;SDS011;22147;52.388;13.390;2023-11-19T03:29:08;5.37;;;5.37;;
36091;SDS011;22147;52.388;13.390;2023-11-19T03:31:41;5.12;;;5.12;;
36091;SDS011;22147;52.388;13.390;2023-11-19T03:34:12;5.18;;;5.18;;
36091;SDS011;22147;52.388;13.390;2023-11-19T03:36:40;5.07;;;5.07;;
36091;SDS011;22147;52.388;13.390;2023-11-19T03:39:09;5.70;;;5.70;;
36091;SDS011;22147;52.388;13.390;2023-11-19T03:41:37;5.57;;;5.57;;
36091;SDS011;22147;52.388;13.390;2023-11-19T03:44:10;5.51;;;5.51;;
36091;SDS011;22147;52.388;13.390;2023-11-19T03:46:40;5.83;;;5.81;;
36091;SDS011;22147;52.388;13.390;2023-11-19T03:49:11;5.44;;;5.43;;
36091;SDS011;22147;52.388;13.390;2023-11-19T03:51:41;5.59;;;5.59;;
36091;SDS011;22147;52.388;13.390;2023-11-19T03:54:11;5.86;;;5.86;;
36091;SDS011;22147;52.388;13.390;2023-11-19T03:56:41;5.92;;;5.92;;
36091;SDS011;22147;52.388;13.390;2023-11-19T03:59:11;5.78;;;5.78;;
36091;SDS011;22147;52.388;13.390;2023-11-19T04:01:41;5.81;;;5.79;;
36091;SDS011;22147;52.388;13.390;2023-11-19T04:04:11;5.96;;;5.93;;
36091;SDS011;22147;52.388;13.390;2023-11-19T04:06:41;5.89;;;5.88;;
36091;SDS011;22147;52.388;13.390;2023-11-19T04:09:11;6.08;;;6.07;;
36091;SDS011;22147;52.388;13.390;2023-11-19T04:11:41;6.27;;;6.20;;
36091;SDS011;22147;52.388;13.390;2023-11-19T04:14:11;6.16;;;6.12;;
36091;SDS011;22147;52.388;13.390;2023-11-19T04:16:42;5.90;;;5.90;;
36091;SDS011;22147;52.388;13.390;2023-11-19T04:19:12;6.21;;;6.20;;
36091;SDS011;22147;52.388;13.390;2023-11-19T04:21:43;6.23;;;6.18;;
36091;SDS011;22147;52.388;13.390;2023-11-19T04:24:13;6.40;;;6.40;;
36091;SDS011;22147;52.388;13.390;2023-11-19T04:26:41;5.93;;;5.91;;
36091;SDS011;22147;52.388;13.390;2023-11-19T04:29:13;5.75;;;5.72;;
36091;SDS011;22147;52.388;13.390;2023-11-19T04:31:46;6.22;;;6.14;;
36091;SDS011;22147;52.388;13.390;2023-11-19T04:34:16;6.15;;;6.15;;
36091;SDS011;22147;52.388;13.390;2023-11-19T04:36:46;6.08;;;6.04;;
36091;SDS011;22147;52.388;13.390;2023-11-19T04:39:16;6.01;;;5.95;;
36091;SDS011;22147;52.388;13.390;2023-11-19T04:41:51;6.33;;;6.27;;
36091;SDS011;22147;52.388;13.390;2023-11-19T04:44:22;6.45;;;6.39;;
36091;SDS011;22147;52.388;13.390;2023-11-19T04:46:52;6.52;;;6.46;;
36091;SDS011;22147;52.388;13.390;2023-11-19T04:49:21;6.20;;;6.20;;
36091;SDS011;22147;52.388;13.390;2023-11-19T04:51:52;6.46;;;6.46;;
36091;SDS011;22147;52.388;13.390;2023-11-19T04:54:22;6.23;;;6.22;;
36091;SDS011;22147;52.388;13.390;2023-11-19T04:56:52;6.47;;;6.43;;
36091;SDS011;22147;52.388;13.390;2023-11-19T04:59:22;6.90;;;6.88;;
36091;SDS011;22147;52.388;13.390;2023-11-19T05:01:52;6.50;;;6.50;;
36091;SDS011;22147;52.388;13.390;2023-11-19T05:04:22;6.53;;;6.48;;
36091;SDS011;22147;52.388;13.390;2023-11-19T05:06:52;6.64;;;6.63;;
36091;SDS011;22147;52.388;13.390;2023-11-19T05:09:22;6.63;;;6.56;;
36091;SDS011;22147;52.388;13.390;2023-11-19T05:11:52;6.50;;;6.50;;
36091;SDS011;22147;52.388;13.390;2023-11-19T05:14:19;6.61;;;6.54;;
36091;SDS011;22147;52.388;13.390;2023-11-19T05:16:50;6.99;;;6.90;;
36091;SDS011;22147;52.388;13.390;2023-11-19T05:19:20;6.59;;;6.53;;
36091;SDS011;22147;52.388;13.390;2023-11-19T05:21:48;6.63;;;6.62;;
36091;SDS011;22147;52.388;13.390;2023-11-19T05:24:20;6.81;;;6.81;;
36091;SDS011;22147;52.388;13.390;2023-11-19T05:26:48;6.43;;;6.43;;
36091;SDS011;22147;52.388;13.390;2023-11-19T05:29:19;6.18;;;6.18;;
36091;SDS011;22147;52.388;13.390;2023-11-19T05:31:48;6.24;;;6.23;;
36091;SDS011;22147;52.388;13.390;2023-11-19T05:34:16;6.56;;;6.54;;
36091;SDS011;22147;52.388;13.390;2023-11-19T05:36:45;6.17;;;6.17;;
36091;SDS011;22147;52.388;13.390;2023-11-19T05:39:13;6.32;;;6.32;;
36091;SDS011;22147;52.388;13.390;2023-11-19T05:41:42;6.30;;;6.30;;
36091;SDS011;22147;52.388;13.390;2023-11-19T05:44:10;6.57;;;6.56;;
36091;SDS011;22147;52.388;13.390;2023-11-19T05:46:38;6.25;;;6.25;;
36091;SDS011;22147;52.388;13.390;2023-11-19T05:49:10;6.06;;;6.04;;
36091;SDS011;22147;52.388;13.390;2023-11-19T05:51:40;6.59;;;6.56;;
36091;SDS011;22147;52.388;13.390;2023-11-19T05:54:10;6.60;;;6.58;;
36091;SDS011;22147;52.388;13.390;2023-11-19T05:56:40;6.47;;;6.47;;
36091;SDS011;22147;52.388;13.390;2023-11-19T05:59:11;6.38;;;6.37;;
36091;SDS011;22147;52.388;13.390;2023-11-19T06:01:44;6.27;;;6.27;;
36091;SDS011;22147;52.388;13.390;2023-11-19T06:04:14;6.49;;;6.49;;
36091;SDS011;22147;52.388;13.390;2023-11-19T06:06:44;5.96;;;5.96;;
36091;SDS011;22147;52.388;13.390;2023-11-19T06:09:13;6.00;;;6.00;;
36091;SDS011;22147;52.388;13.390;2023-11-19T06:11:44;5.92;;;5.91;;
36091;SDS011;22147;52.388;13.390;2023-11-19T06:14:14;5.83;;;5.82;;
36091;SDS011;22147;52.388;13.390;2023-11-19T06:16:44;6.07;;;6.07;;
36091;SDS011;22147;52.388;13.390;2023-11-19T06:19:14;6.11;;;6.11;;
36091;SDS011;22147;52.388;13.390;2023-11-19T06:21:44;6.01;;;6.01;;
36091;SDS011;22147;52.388;13.390;2023-11-19T06:24:14;5.67;;;5.67;;
36091;SDS011;22147;52.388;13.390;2023-11-19T06:26:44;5.65;;;5.65;;
36091;SDS011;22147;52.388;13.390;2023-11-19T06:29:14;5.63;;;5.62;;
36091;SDS011;22147;52.388;13.390;2023-11-19T06:31:47;5.97;;;5.96;;
36091;SDS011;22147;52.388;13.390;2023-11-19T06:34:17;5.76;;;5.76;;
36091;SDS011;22147;52.388;13.390;2023-11-19T06:36:47;5.87;;;5.87;;
36091;SDS011;22147;52.388;13.390;2023-11-19T06:39:17;5.50;;;5.49;;
36091;SDS011;22147;52.388;13.390;2023-11-19T06:41:47;5.42;;;5.42;;
36091;SDS011;22147;52.388;13.390;2023-11-19T06:44:18;5.53;;;5.53;;
36091;SDS011;22147;52.388;13.390;2023-11-19T06:46:48;5.63;;;5.57;;
36091;SDS011;22147;52.388;13.390;2023-11-19T06:49:18;5.38;;;5.38;;
36091;SDS011;22147;52.388;13.390;2023-11-19T06:51:48;5.26;;;5.26;;
36091;SDS011;22147;52.388;13.390;2023-11-19T06:54:18;5.14;;;5.14;;
36091;SDS011;22147;52.388;13.390;2023-11-19T06:56:48;5.18;;;5.18;;
36091;SDS011;22147;52.388;13.390;2023-11-19T06:59:18;5.05;;;5.05;;
36091;SDS011;22147;52.388;13.390;2023-11-19T07:01:48;5.30;;;5.30;;
36091;SDS011;22147;52.388;13.390;2023-11-19T07:04:18;5.15;;;5.15;;
36091;SDS011;22147;52.388;13.390;2023-11-19T07:06:48;5.30;;;5.30;;
36091;SDS011;22147;52.388;13.390;2023-11-19T07:09:17;5.07;;;5.07;;
36091;SDS011;22147;52.388;13.390;2023-11-19T07:11:45;5.12;;;5.12;;
36091;SDS011;22147;52.388;13.390;2023-11-19T07:14:13;5.41;;;5.41;;
36091;SDS011;22147;52.388;13.390;2023-11-19T07:16:42;4.98;;;4.98;;
36091;SDS011;22147;52.388;13.390;2023-11-19T07:19:10;5.00;;;5.00;;
36091;SDS011;22147;52.388;13.390;2023-11-19T07:21:42;4.60;;;4.60;;
36091;SDS011;22147;52.388;13.390;2023-11-19T07:24:13;4.90;;;4.90;;
36091;SDS011;22147;52.388;13.390;2023-11-19T07:26:45;4.62;;;4.62;;
36091;SDS011;22147;52.388;13.390;2023-11-19T07:29:16;4.68;;;4.68;;
36091;SDS011;22147;52.388;13.390;2023-11-19T07:31:58;4.56;;;4.56;;
36091;SDS011;22147;52.388;13.390;2023-11-19T07:34:28;4.56;;;4.56;;
36091;SDS011;22147;52.388;13.390;2023-11-19T07:36:58;4.58;;;4.58;;
36091;SDS011;22147;52.388;13.390;2023-11-19T07:39:32;4.24;;;4.24;;
36091;SDS011;22147;52.388;13.390;2023-11-19T07:42:02;4.42;;;4.42;;
36091;SDS011;22147;52.388;13.390;2023-11-19T07:44:32;4.52;;;4.52;;
36091;SDS011;22147;52.388;13.390;2023-11-19T07:47:01;4.60;;;4.56;;
36091;SDS011;22147;52.388;13.390;2023-11-19T07:49:29;4.66;;;4.66;;
36091;SDS011;22147;52.388;13.390;2023-11-19T07:51:58;4.73;;;4.70;;
36091;SDS011;22147;52.388;13.390;2023-11-19T07:54:27;4.37;;;4.37;;
36091;SDS011;22147;52.388;13.390;2023-11-19T07:56:57;4.50;;;4.49;;
36091;SDS011;22147;52.388;13.390;2023-11-19T07:59:26;4.24;;;4.24;;
36091;SDS011;22147;52.388;13.390;2023-11-19T08:01:54;4.17;;;4.17;;
36091;SDS011;22147;52.388;13.390;2023-11-19T08:04:23;4.02;;;4.02;;
36091;SDS011;22147;52.388;13.390;2023-11-19T08:06:51;4.14;;;4.14;;
36091;SDS011;22147;52.388;13.390;2023-11-19T08:09:23;4.31;;;4.31;;
36091;SDS011;22147;52.388;13.390;2023-11-19T08:11:53;3.96;;;3.96;;
36091;SDS011;22147;52.388;13.390;2023-11-19T08:14:26;3.68;;;3.68;;
36091;SDS011;22147;52.388;13.390;2023-11-19T08:16:56;3.56;;;3.56;;
36091;SDS011;22147;52.388;13.390;2023-11-19T08:19:26;3.37;;;3.37;;
36091;SDS011;22147;52.388;13.390;2023-11-19T08:22:00;3.10;;;3.10;;
36091;SDS011;22147;52.388;13.390;2023-11-19T08:24:30;3.17;;;3.17;;
36091;SDS011;22147;52.388;13.390;2023-11-19T08:27:00;3.16;;;3.16;;
36091;SDS011;22147;52.388;13.390;2023-11-19T08:29:31;3.21;;;3.21;;
36091;SDS011;22147;52.388;13.390;2023-11-19T08:32:02;3.05;;;3.05;;
36091;SDS011;22147;52.388;13.390;2023-11-19T08:34:33;2.93;;;2.93;;
36091;SDS011;22147;52.388;13.390;2023-11-19T08:37:03;3.05;;;3.05;;
36091;SDS011;22147;52.388;13.390;2023-11-19T08:39:33;2.82;;;2.82;;
36091;SDS011;22147;52.388;13.390;2023-11-19T08:42:04;2.57;;;2.57;;
36091;SDS011;22147;52.388;13.390;2023-11-19T08:44:35;2.51;;;2.51;;
36091;SDS011;22147;52.388;13.390;2023-11-19T08:47:05;2.60;;;2.60;;
36091;SDS011;22147;52.388;13.390;2023-11-19T08:49:33;2.58;;;2.58;;
36091;SDS011;22147;52.388;13.390;2023-11-19T08:52:02;2.36;;;2.36;;
36091;SDS011;22147;52.388;13.390;2023-11-19T08:54:30;2.66;;;2.66;;
36091;SDS011;22147;52.388;13.390;2023-11-19T08:56:59;2.57;;;2.57;;
36091;SDS011;22147;52.388;13.390;2023-11-19T08:59:27;2.52;;;2.52;;
36091;SDS011;22147;52.388;13.390;2023-11-19T09:01:55;2.32;;;2.32;;
36091;SDS011;22147;52.388;13.390;2023-11-19T09:04:24;2.61;;;2.61;;
36091;SDS011;22147;52.388;13.390;2023-11-19T09:06:52;2.57;;;2.57;;
36091;SDS011;22147;52.388;13.390;2023-11-19T09:09:21;2.49;;;2.49;;
36091;SDS011;22147;52.388;13.390;2023-11-19T09:11:49;2.43;;;2.43;;
36091;SDS011;22147;52.388;13.390;2023-11-19T09:14:18;2.21;;;2.21;;
36091;SDS011;22147;52.388;13.390;2023-11-19T09:16:46;2.34;;;2.34;;
36091;SDS011;22147;52.388;13.390;2023-11-19T09:19:15;2.29;;;2.29;;
36091;SDS011;22147;52.388;13.390;2023-11-19T09:21:43;2.10;;;2.10;;
36091;SDS011;22147;52.388;13.390;2023-11-19T09:24:11;1.84;;;1.84;;
36091;SDS011;22147;52.388;13.390;2023-11-19T09:26:43;1.79;;;1.79;;
36091;SDS011;22147;52.388;13.390;2023-11-19T09:29:11;1.87;;;1.87;;
36091;SDS011;22147;52.388;13.390;2023-11-19T09:31:44;1.94;;;1.94;;
36091;SDS011;22147;52.388;13.390;2023-11-19T09:34:14;1.68;;;1.68;;
36091;SDS011;22147;52.388;13.390;2023-11-19T09:36:44;1.89;;;1.89;;
36091;SDS011;22147;52.388;13.390;2023-11-19T09:39:14;1.76;;;1.76;;
36091;SDS011;22147;52.388;13.390;2023-11-19T09:41:47;1.73;;;1.73;;
36091;SDS011;22147;52.388;13.390;2023-11-19T09:44:17;1.67;;;1.67;;
36091;SDS011;22147;52.388;13.390;2023-11-19T09:46:48;1.66;;;1.66;;
36091;SDS011;22147;52.388;13.390;2023-11-19T09:49:21;1.65;;;1.65;;
36091;SDS011;22147;52.388;13.390;2023-11-19T09:51:59;1.50;;;1.50;;
36091;SDS011;22147;52.388;13.390;2023-11-19T09:54:29;1.56;;;1.56;;
36091;SDS011;22147;52.388;13.390;2023-11-19T09:57:00;1.49;;;1.49;;
36091;SDS011;22147;52.388;13.390;2023-11-19T09:59:33;1.34;;;1.34;;
36091;SDS011;22147;52.388;13.390;2023-11-19T10:02:08;1.40;;;1.40;;
36091;SDS011;22147;52.388;13.390;2023-11-19T10:04:40;1.31;;;1.31;;
36091;SDS011;22147;52.388;13.390;2023-11-19T10:07:14;1.31;;;1.31;;
36091;SDS011;22147;52.388;13.390;2023-11-19T10:09:44;1.52;;;1.52;;
36091;SDS011;22147;52.388;13.390;2023-11-19T10:12:15;1.23;;;1.23;;
36091;SDS011;22147;52.388;13.390;2023-11-19T10:14:44;1.32;;;1.32;;
36091;SDS011;22147;52.388;13.390;2023-11-19T10:17:17;1.24;;;1.24;;
36091;SDS011;22147;52.388;13.390;2023-11-19T10:19:47;1.36;;;1.36;;
36091;SDS011;22147;52.388;13.390;2023-11-19T10:22:17;1.22;;;1.22;;
36091;SDS011;22147;52.388;13.390;2023-11-19T10:24:48;1.39;;;1.39;;
36091;SDS011;22147;52.388;13.390;2023-11-19T10:27:24;1.40;;;1.40;;
36091;SDS011;22147;52.388;13.390;2023-11-19T10:29:55;1.31;;;1.31;;
36091;SDS011;22147;52.388;13.390;2023-11-19T10:32:29;1.53;;;1.53;;
36091;SDS011;22147;52.388;13.390;2023-11-19T10:35:06;1.47;;;1.46;;
36091;SDS011;22147;52.388;13.390;2023-11-19T10:37:37;1.42;;;1.41;;
36091;SDS011;22147;52.388;13.390;2023-11-19T10:40:05;1.48;;;1.48;;
36091;SDS011;22147;52.388;13.390;2023-11-19T10:42:41;1.45;;;1.45;;
36091;SDS011;22147;52.388;13.390;2023-11-19T10:45:21;1.40;;;1.40;;
36091;SDS011;22147;52.388;13.390;2023-11-19T10:47:55;1.57;;;1.57;;
36091;SDS011;22147;52.388;13.390;2023-11-19T10:50:27;1.53;;;1.53;;
36091;SDS011;22147;52.388;13.390;2023-11-19T10:52:58;1.63;;;1.62;;
36091;SDS011;22147;52.388;13.390;2023-11-19T10:55:33;1.89;;;1.82;;
36091;SDS011;22147;52.388;13.390;2023-11-19T10:58:09;1.78;;;1.69;;
36091;SDS011;22147;52.388;13.390;2023-11-19T11:00:44;2.06;;;1.94;;
36091;SDS011;22147;52.388;13.390;2023-11-19T11:03:21;1.87;;;1.78;;
36091;SDS011;22147;52.388;13.390;2023-11-19T11:05:55;1.88;;;1.82;;
36091;SDS011;22147;52.388;13.390;2023-11-19T11:08:27;1.80;;;1.78;;
36091;SDS011;22147;52.388;13.390;2023-11-19T11:10:59;2.00;;;1.93;;
36091;SDS011;22147;52.388;13.390;2023-11-19T11:13:31;2.27;;;2.15;;
36091;SDS011;22147;52.388;13.390;2023-11-19T11:16:03;2.41;;;2.25;;
36091;SDS011;22147;52.388;13.390;2023-11-19T11:18:37;2.22;;;2.05;;
36091;SDS011;22147;52.388;13.390;2023-11-19T11:21:15;2.26;;;2.07;;
36091;SDS011;22147;52.388;13.390;2023-11-19T11:36:01;3.11;;;2.87;;
36091;SDS011;22147;52.388;13.390;2023-11-19T11:38:49;2.97;;;2.75;;
36091;SDS011;22147;52.388;13.390;2023-11-19T11:41:20;3.13;;;2.94;;
36091;SDS011;22147;52.388;13.390;2023-11-19T11:43:58;3.12;;;2.86;;
36091;SDS011;22147;52.388;13.390;2023-11-19T11:49:01;3.69;;;3.34;;
36091;SDS011;22147;52.388;13.390;2023-11-19T11:57:03;3.11;;;2.90;;
36091;SDS011;22147;52.388;13.390;2023-11-19T12:02:15;3.14;;;2.95;;
36091;SDS011;22147;52.388;13.390;2023-11-19T12:04:50;3.21;;;3.04;;
36091;SDS011;22147;52.388;13.390;2023-11-19T12:07:21;3.17;;;2.93;;
36091;SDS011;22147;52.388;13.390;2023-11-19T12:10:05;3.36;;;3.11;;
36091;SDS011;22147;52.388;13.390;2023-11-19T12:12:39;2.97;;;2.81;;
36091;SDS011;22147;52.388;13.390;2023-11-19T12:15:11;3.54;;;3.29;;
36091;SDS011;22147;52.388;13.390;2023-11-19T12:17:47;3.61;;;3.27;;
36091;SDS011;22147;52.388;13.390;2023-11-19T12:20:21;3.56;;;3.22;;
36091;SDS011;22147;52.388;13.390;2023-11-19T12:22:58;3.75;;;3.40;;
36091;SDS011;22147;52.388;13.390;2023-11-19T12:25:35;3.40;;;3.09;;
36091;SDS011;22147;52.388;13.390;2023-11-19T12:28:05;3.51;;;3.19;;
36091;SDS011;22147;52.388;13.390;2023-11-19T12:30:40;3.78;;;3.47;;
36091;SDS011;22147;52.388;13.390;2023-11-19T12:33:12;3.85;;;3.42;;
36091;SDS011;22147;52.388;13.390;2023-11-19T12:35:45;4.34;;;3.79;;
36091;SDS011;22147;52.388;13.390;2023-11-19T12:38:21;3.96;;;3.49;;
36091;SDS011;22147;52.388;13.390;2023-11-19T12:41:08;4.09;;;3.63;;
36091;SDS011;22147;52.388;13.390;2023-11-19T12:43:41;4.16;;;3.73;;
36091;SDS011;22147;52.388;13.390;2023-11-19T12:46:22;4.05;;;3.61;;
36091;SDS011;22147;52.388;13.390;2023-11-19T12:48:53;4.15;;;3.68;;
36091;SDS011;22147;52.388;13.390;2023-11-19T12:51:30;4.36;;;3.77;;
36091;SDS011;22147;52.388;13.390;2023-11-19T12:54:02;4.98;;;4.21;;
36091;SDS011;22147;52.388;13.390;2023-11-19T12:56:33;4.72;;;4.08;;
36091;SDS011;22147;52.388;13.390;2023-11-19T12:59:10;5.30;;;4.41;;
36091;SDS011;22147;52.388;13.390;2023-11-19T13:01:40;5.26;;;4.36;;
36091;SDS011;22147;52.388;13.390;2023-11-19T13:04:15;5.26;;;4.29;;
36091;SDS011;22147;52.388;13.390;2023-11-19T13:06:49;5.54;;;4.58;;
36091;SDS011;22147;52.388;13.390;2023-11-19T13:09:26;5.50;;;4.63;;
36091;SDS011;22147;52.388;13.390;2023-11-19T13:11:57;5.02;;;4.24;;
36091;SDS011;22147;52.388;13.390;2023-11-19T13:14:37;4.93;;;4.17;;
36091;SDS011;22147;52.388;13.390;2023-11-19T13:17:05;5.70;;;4.65;;
36091;SDS011;22147;52.388;13.390;2023-11-19T13:19:35;6.13;;;4.98;;
36091;SDS011;22147;52.388;13.390;2023-11-19T13:22:05;5.34;;;4.38;;
36091;SDS011;22147;52.388;13.390;2023-11-19T13:24:36;5.81;;;4.70;;
36091;SDS011;22147;52.388;13.390;2023-11-19T13:27:07;6.10;;;4.95;;
36091;SDS011;22147;52.388;13.390;2023-11-19T13:29:37;5.65;;;4.69;;
36091;SDS011;22147;52.388;13.390;2023-11-19T13:32:07;6.12;;;5.05;;
36091;SDS011;22147;52.388;13.390;2023-11-19T13:34:37;5.68;;;4.81;;
36091;SDS011;22147;52.388;13.390;2023-11-19T13:37:08;5.81;;;4.89;;
36091;SDS011;22147;52.388;13.390;2023-11-19T13:39:41;5.82;;;4.82;;
36091;SDS011;22147;52.388;13.390;2023-11-19T13:42:10;6.20;;;5.06;;
36091;SDS011;22147;52.388;13.390;2023-11-19T13:44:40;6.00;;;4.85;;
36091;SDS011;22147;52.388;13.390;2023-11-19T13:47:09;6.05;;;4.94;;
36091;SDS011;22147;52.388;13.390;2023-11-19T13:49:37;5.78;;;4.77;;
36091;SDS011;22147;52.388;13.390;2023-11-19T13:52:06;5.38;;;4.56;;
36091;SDS011;22147;52.388;13.390;2023-11-19T13:54:34;5.50;;;4.67;;
36091;SDS011;22147;52.388;13.390;2023-11-19T13:57:03;5.65;;;4.77;;
36091;SDS011;22147;52.388;13.390;2023-11-19T13:59:31;5.59;;;4.72;;
36091;SDS011;22147;52.388;13.390;2023-11-19T14:02:02;5.66;;;4.75;;
36091;SDS011;22147;52.388;13.390;2023-11-19T14:04:31;5.84;;;4.94;;
36091;SDS011;22147;52.388;13.390;2023-11-19T14:06:59;5.38;;;4.58;;
36091;SDS011;22147;52.388;13.390;2023-11-19T14:09:28;5.76;;;4.80;;
36091;SDS011;22147;52.388;13.390;2023-11-19T14:11:56;5.69;;;4.74;;
36091;SDS011;22147;52.388;13.390;2023-11-19T14:14:25;5.83;;;4.77;;
36091;SDS011;22147;52.388;13.390;2023-11-19T14:16:53;6.23;;;4.98;;
36091;SDS011;22147;52.388;13.390;2023-11-19T14:19:41;6.22;;;4.94;;
36091;SDS011;22147;52.388;13.390;2023-11-19T14:22:10;6.83;;;5.30;;
36091;SDS011;22147;52.388;13.390;2023-11-19T14:24:38;6.91;;;5.37;;
36091;SDS011;22147;52.388;13.390;2023-11-19T14:27:10;7.26;;;5.58;;
36091;SDS011;22147;52.388;13.390;2023-11-19T14:29:38;6.59;;;5.09;;
36091;SDS011;22147;52.388;13.390;2023-11-19T14:32:09;6.79;;;5.18;;
36091;SDS011;22147;52.388;13.390;2023-11-19T14:34:37;7.05;;;5.34;;
36091;SDS011;22147;52.388;13.390;2023-11-19T14:37:06;6.47;;;5.02;;
36091;SDS011;22147;52.388;13.390;2023-11-19T14:39:34;7.23;;;5.57;;
36091;SDS011;22147;52.388;13.390;2023-11-19T14:42:03;6.95;;;5.35;;
36091;SDS011;22147;52.388;13.390;2023-11-19T14:44:33;6.87;;;5.30;;
36091;SDS011;22147;52.388;13.390;2023-11-19T14:47:03;6.83;;;5.22;;
36091;SDS011;22147;52.388;13.390;2023-11-19T14:49:36;6.57;;;5.08;;
36091;SDS011;22147;52.388;13.390;2023-11-19T14:52:05;6.22;;;4.81;;
36091;SDS011;22147;52.388;13.390;2023-11-19T14:54:38;7.06;;;5.36;;
36091;SDS011;22147;52.388;13.390;2023-11-19T14:57:07;6.99;;;5.30;;
36091;SDS011;22147;52.388;13.390;2023-11-19T14:59:37;7.96;;;5.95;;
36091;SDS011;22147;52.388;13.390;2023-11-19T15:02:08;7.16;;;5.28;;
36091;SDS011;22147;52.388;13.390;2023-11-19T15:04:37;7.07;;;5.37;;
36091;SDS011;22147;52.388;13.390;2023-11-19T15:07:08;7.83;;;6.05;;
36091;SDS011;22147;52.388;13.390;2023-11-19T15:09:36;7.21;;;5.63;;
36091;SDS011;22147;52.388;13.390;2023-11-19T15:12:05;7.06;;;5.61;;
36091;SDS011;22147;52.388;13.390;2023-11-19T15:14:33;6.42;;;5.21;;
36091;SDS011;22147;52.388;13.390;2023-11-19T15:17:01;6.41;;;5.23;;